WMT2908 LIPH-LROP
Flight info
| Callsign | WMT2908 |
|---|---|
| Flight time | N/A |
| Altitude | 19000 |
| Route | INBUT N503 LAREN/N0382F180 Q561 AKADO/N0387F190 L615 ROTAR/N0454F350 DCT NAKIT DCT PUL DCT ENUPU DCT VELIP DCT TOSVI |
| Aircraft | A321/M-SDE3FGHIRWY/LB1 |
Departure
| Time | 2026-04-24 10:32 |
|---|---|
| Airport | Treviso Airport (LIPH) |
Arrival
| Time | N/A |
|---|---|
| Airport | Bucharest Henri Coandă International Airport (LROP) |
| Time | Latitude | Longitude | Altitude | Speed | Heading |
|---|---|---|---|---|---|
| 2026-04-24 10:25 | 45.65359 | 12.20591 | 55 ft | 0 kts | 248° |
| 2026-04-24 10:26 | 45.65355 | 12.20578 | 56 ft | 3 kts | 248° |
| 2026-04-24 10:26 | 45.65349 | 12.20556 | 53 ft | 4 kts | 248° |
| 2026-04-24 10:26 | 45.65334 | 12.20505 | 62 ft | 7 kts | 248° |
| 2026-04-24 10:27 | 45.65314 | 12.20435 | 55 ft | 9 kts | 248° |
| 2026-04-24 10:27 | 45.65286 | 12.20346 | 55 ft | 11 kts | 236° |
| 2026-04-24 10:27 | 45.65219 | 12.20279 | 60 ft | 13 kts | 207° |
| 2026-04-24 10:27 | 45.65132 | 12.20220 | 63 ft | 15 kts | 206° |
| 2026-04-24 10:28 | 45.65047 | 12.20125 | 61 ft | 17 kts | 229° |
| 2026-04-24 10:28 | 45.64996 | 12.19959 | 56 ft | 19 kts | 251° |
| 2026-04-24 10:28 | 45.64947 | 12.19768 | 60 ft | 22 kts | 249° |
| 2026-04-24 10:28 | 45.64892 | 12.19565 | 58 ft | 22 kts | 249° |
| 2026-04-24 10:29 | 45.64837 | 12.19356 | 59 ft | 23 kts | 249° |
| 2026-04-24 10:29 | 45.64779 | 12.19141 | 63 ft | 24 kts | 251° |
| 2026-04-24 10:29 | 45.64719 | 12.18911 | 64 ft | 25 kts | 249° |
| 2026-04-24 10:29 | 45.64656 | 12.18670 | 59 ft | 27 kts | 249° |
| 2026-04-24 10:30 | 45.64589 | 12.18418 | 64 ft | 27 kts | 249° |
| 2026-04-24 10:30 | 45.64529 | 12.18195 | 65 ft | 21 kts | 249° |
| 2026-04-24 10:30 | 45.64497 | 12.18034 | 65 ft | 14 kts | 265° |
| 2026-04-24 10:30 | 45.64500 | 12.17936 | 70 ft | 7 kts | 227° |
| 2026-04-24 10:31 | 45.64476 | 12.17953 | 70 ft | 5 kts | 122° |
| 2026-04-24 10:31 | 45.64483 | 12.18023 | 64 ft | 11 kts | 70° |
| 2026-04-24 10:31 | 45.64566 | 12.18337 | 63 ft | 70 kts | 69° |
| 2026-04-24 10:31 | 45.64821 | 12.19307 | 58 ft | 136 kts | 70° |
| 2026-04-24 10:32 | 45.65196 | 12.20778 | 329 ft | 163 kts | 71° |
| 2026-04-24 10:32 | 45.65564 | 12.22242 | 1125 ft | 158 kts | 71° |
| 2026-04-24 10:32 | 45.65930 | 12.23787 | 1765 ft | 170 kts | 71° |
| 2026-04-24 10:32 | 45.66324 | 12.25390 | 2391 ft | 171 kts | 71° |
| 2026-04-24 10:33 | 45.66608 | 12.27058 | 2829 ft | 183 kts | 96° |
| 2026-04-24 10:33 | 45.66006 | 12.28582 | 3317 ft | 186 kts | 147° |
| 2026-04-24 10:33 | 45.64766 | 12.28925 | 3823 ft | 188 kts | 196° |
| 2026-04-24 10:33 | 45.63637 | 12.28018 | 4345 ft | 189 kts | 218° |
| 2026-04-24 10:34 | 45.62483 | 12.27076 | 4797 ft | 200 kts | 196° |
| 2026-04-24 10:34 | 45.61038 | 12.27204 | 4952 ft | 223 kts | 158° |
| 2026-04-24 10:34 | 45.59608 | 12.28311 | 5165 ft | 243 kts | 150° |
| 2026-04-24 10:34 | 45.58105 | 12.29568 | 5668 ft | 257 kts | 148° |
| 2026-04-24 10:35 | 45.56520 | 12.30904 | 6199 ft | 272 kts | 149° |
| 2026-04-24 10:35 | 45.54859 | 12.32299 | 6707 ft | 280 kts | 149° |
| 2026-04-24 10:35 | 45.53169 | 12.33714 | 7196 ft | 283 kts | 148° |
| 2026-04-24 10:35 | 45.51461 | 12.35131 | 7688 ft | 285 kts | 148° |
| 2026-04-24 10:36 | 45.49733 | 12.36555 | 8192 ft | 287 kts | 148° |
| 2026-04-24 10:36 | 45.47995 | 12.37984 | 8711 ft | 290 kts | 148° |
| 2026-04-24 10:36 | 45.46239 | 12.39427 | 9230 ft | 292 kts | 147° |
| 2026-04-24 10:36 | 45.44469 | 12.40882 | 9759 ft | 295 kts | 147° |
| 2026-04-24 10:37 | 45.42681 | 12.42349 | 10263 ft | 300 kts | 147° |
| 2026-04-24 10:37 | 45.40846 | 12.43855 | 10757 ft | 310 kts | 147° |
| 2026-04-24 10:37 | 45.38951 | 12.45414 | 11257 ft | 320 kts | 147° |
| 2026-04-24 10:37 | 45.37049 | 12.47133 | 11759 ft | 327 kts | 139° |
| 2026-04-24 10:38 | 45.35338 | 12.49288 | 12261 ft | 333 kts | 130° |
| 2026-04-24 10:38 | 45.33849 | 12.51924 | 12400 ft | 350 kts | 120° |
| 2026-04-24 10:38 | 45.32675 | 12.55030 | 12532 ft | 365 kts | 109° |
| 2026-04-24 10:38 | 45.31895 | 12.58514 | 12804 ft | 375 kts | 100° |
| 2026-04-24 10:39 | 45.31297 | 12.62145 | 13384 ft | 379 kts | 100° |
| 2026-04-24 10:39 | 45.30677 | 12.65805 | 14056 ft | 382 kts | 100° |
| 2026-04-24 10:39 | 45.30043 | 12.69481 | 14651 ft | 385 kts | 101° |
| 2026-04-24 10:39 | 45.29396 | 12.73190 | 15244 ft | 388 kts | 101° |
| 2026-04-24 10:40 | 45.28745 | 12.76923 | 15840 ft | 391 kts | 101° |
| 2026-04-24 10:40 | 45.28206 | 12.80714 | 16431 ft | 392 kts | 95° |
| 2026-04-24 10:40 | 45.27812 | 12.84563 | 17014 ft | 396 kts | 95° |
| 2026-04-24 10:40 | 45.27417 | 12.88443 | 17580 ft | 399 kts | 95° |
| 2026-04-24 10:41 | 45.27023 | 12.92303 | 18128 ft | 402 kts | 95° |
| 2026-04-24 10:41 | 45.26616 | 12.96291 | 18627 ft | 405 kts | 95° |
| 2026-04-24 10:41 | 45.26202 | 13.00207 | 19074 ft | 408 kts | 97° |
| 2026-04-24 10:41 | 45.25671 | 13.04179 | 19534 ft | 411 kts | 99° |
| 2026-04-24 10:42 | 45.25036 | 13.08158 | 19998 ft | 415 kts | 101° |
| 2026-04-24 10:42 | 45.24342 | 13.12136 | 20460 ft | 417 kts | 101° |
| 2026-04-24 10:42 | 45.23626 | 13.16141 | 20908 ft | 420 kts | 101° |
| 2026-04-24 10:42 | 45.22915 | 13.20169 | 21350 ft | 422 kts | 101° |
| 2026-04-24 10:43 | 45.22219 | 13.24223 | 21794 ft | 424 kts | 100° |
| 2026-04-24 10:43 | 45.21536 | 13.28310 | 22227 ft | 426 kts | 100° |
| 2026-04-24 10:43 | 45.20858 | 13.32421 | 22662 ft | 429 kts | 100° |
| 2026-04-24 10:43 | 45.20177 | 13.36548 | 23084 ft | 431 kts | 100° |
| 2026-04-24 10:44 | 45.19412 | 13.40675 | 23496 ft | 436 kts | 105° |
| 2026-04-24 10:44 | 45.18209 | 13.44647 | 23864 ft | 442 kts | 115° |
| 2026-04-24 10:44 | 45.16538 | 13.48342 | 24198 ft | 449 kts | 124° |
| 2026-04-24 10:44 | 45.14492 | 13.51722 | 24540 ft | 453 kts | 128° |
| 2026-04-24 10:45 | 45.12394 | 13.55069 | 24881 ft | 455 kts | 127° |
| 2026-04-24 10:45 | 45.10284 | 13.58426 | 25221 ft | 457 kts | 127° |
| 2026-04-24 10:45 | 45.08167 | 13.61788 | 25564 ft | 459 kts | 127° |
| 2026-04-24 10:45 | 45.06041 | 13.65169 | 25917 ft | 461 kts | 127° |
| 2026-04-24 10:46 | 45.03907 | 13.68566 | 26257 ft | 463 kts | 127° |
| 2026-04-24 10:46 | 45.01765 | 13.71974 | 26589 ft | 465 kts | 127° |
| 2026-04-24 10:46 | 44.99615 | 13.75394 | 26967 ft | 465 kts | 127° |
| 2026-04-24 10:46 | 44.97471 | 13.78800 | 27440 ft | 463 kts | 127° |
| 2026-04-24 10:47 | 44.95330 | 13.82192 | 27912 ft | 462 kts | 127° |
| 2026-04-24 10:47 | 44.93220 | 13.85596 | 28373 ft | 458 kts | 123° |
| 2026-04-24 10:47 | 44.91458 | 13.89293 | 28821 ft | 451 kts | 114° |
| 2026-04-24 10:47 | 44.90158 | 13.93282 | 29268 ft | 444 kts | 105° |
| 2026-04-24 10:48 | 44.89339 | 13.97387 | 29723 ft | 438 kts | 97° |
| 2026-04-24 10:48 | 44.88977 | 14.01625 | 30180 ft | 432 kts | 89° |
| 2026-04-24 10:48 | 44.88874 | 14.05853 | 30566 ft | 431 kts | 89° |
| 2026-04-24 10:48 | 44.88762 | 14.10065 | 30943 ft | 429 kts | 89° |
| 2026-04-24 10:49 | 44.88643 | 14.14263 | 31322 ft | 428 kts | 89° |
| 2026-04-24 10:49 | 44.88519 | 14.18452 | 31701 ft | 427 kts | 89° |
| 2026-04-24 10:49 | 44.88392 | 14.22621 | 32074 ft | 425 kts | 89° |
| 2026-04-24 10:49 | 44.88266 | 14.26778 | 32453 ft | 424 kts | 89° |
| 2026-04-24 10:50 | 44.88140 | 14.30923 | 32828 ft | 423 kts | 89° |
| 2026-04-24 10:50 | 44.88013 | 14.35057 | 33202 ft | 421 kts | 89° |
| 2026-04-24 10:50 | 44.87884 | 14.39184 | 33571 ft | 420 kts | 89° |
| 2026-04-24 10:50 | 44.87757 | 14.43288 | 33958 ft | 419 kts | 89° |
| 2026-04-24 10:51 | 44.87629 | 14.47386 | 34297 ft | 418 kts | 89° |
| 2026-04-24 10:51 | 44.87501 | 14.51472 | 34573 ft | 417 kts | 89° |
| 2026-04-24 10:51 | 44.87373 | 14.55563 | 34834 ft | 417 kts | 89° |
| 2026-04-24 10:51 | 44.87240 | 14.59642 | 35051 ft | 418 kts | 89° |
| 2026-04-24 10:52 | 44.87104 | 14.63742 | 35126 ft | 418 kts | 89° |
| 2026-04-24 10:52 | 44.86833 | 14.71930 | 35123 ft | 418 kts | 89° |
| 2026-04-24 10:53 | 44.86555 | 14.80121 | 35125 ft | 418 kts | 89° |
| 2026-04-24 10:53 | 44.86268 | 14.88307 | 35122 ft | 418 kts | 89° |
| 2026-04-24 10:54 | 44.85977 | 14.96490 | 35123 ft | 418 kts | 89° |
| 2026-04-24 10:54 | 44.85681 | 15.04678 | 35127 ft | 418 kts | 89° |
| 2026-04-24 10:55 | 44.85387 | 15.12692 | 35137 ft | 419 kts | 89° |
| 2026-04-24 10:55 | 44.85076 | 15.20890 | 35136 ft | 419 kts | 89° |
| 2026-04-24 10:56 | 44.84760 | 15.29096 | 35144 ft | 419 kts | 89° |
| 2026-04-24 10:56 | 44.84441 | 15.37294 | 35138 ft | 419 kts | 89° |
| 2026-04-24 10:57 | 44.84118 | 15.45496 | 35132 ft | 419 kts | 89° |
| 2026-04-24 10:57 | 44.83784 | 15.53693 | 35133 ft | 419 kts | 89° |
| 2026-04-24 10:58 | 44.83441 | 15.61895 | 35143 ft | 419 kts | 89° |
| 2026-04-24 10:58 | 44.83102 | 15.70040 | 35142 ft | 419 kts | 89° |
| 2026-04-24 10:59 | 44.82759 | 15.78225 | 35142 ft | 419 kts | 90° |
| 2026-04-24 10:59 | 44.82405 | 15.86414 | 35141 ft | 419 kts | 90° |
| 2026-04-24 11:00 | 44.82039 | 15.94607 | 35143 ft | 419 kts | 90° |
| 2026-04-24 11:00 | 44.81675 | 16.02815 | 35142 ft | 420 kts | 90° |
| 2026-04-24 11:01 | 44.81310 | 16.11028 | 35143 ft | 420 kts | 90° |
| 2026-04-24 11:01 | 44.80932 | 16.19241 | 35139 ft | 420 kts | 90° |
| 2026-04-24 11:02 | 44.80532 | 16.27452 | 35134 ft | 420 kts | 90° |
| 2026-04-24 11:02 | 44.80138 | 16.35665 | 35136 ft | 420 kts | 90° |
| 2026-04-24 11:03 | 44.79740 | 16.43878 | 35136 ft | 420 kts | 90° |
| 2026-04-24 11:03 | 44.79336 | 16.52096 | 35140 ft | 421 kts | 90° |
| 2026-04-24 11:04 | 44.78930 | 16.60313 | 35138 ft | 421 kts | 90° |
| 2026-04-24 11:04 | 44.78516 | 16.68543 | 35135 ft | 421 kts | 90° |
| 2026-04-24 11:05 | 44.78099 | 16.76760 | 35135 ft | 421 kts | 91° |
| 2026-04-24 11:05 | 44.77671 | 16.85000 | 35141 ft | 422 kts | 91° |
| 2026-04-24 11:06 | 44.77236 | 16.93241 | 35137 ft | 422 kts | 91° |
| 2026-04-24 11:06 | 44.76794 | 17.01424 | 35149 ft | 422 kts | 91° |
| 2026-04-24 11:07 | 44.76107 | 17.13784 | 35153 ft | 422 kts | 91° |
| 2026-04-24 11:07 | 44.75651 | 17.22013 | 35150 ft | 422 kts | 91° |
| 2026-04-24 11:08 | 44.75191 | 17.30253 | 35148 ft | 422 kts | 91° |
| 2026-04-24 11:08 | 44.74723 | 17.38478 | 35147 ft | 422 kts | 91° |
| 2026-04-24 11:09 | 44.74255 | 17.46706 | 35143 ft | 422 kts | 91° |
| 2026-04-24 11:09 | 44.73777 | 17.54931 | 35140 ft | 422 kts | 91° |
| 2026-04-24 11:10 | 44.73373 | 17.61778 | 35134 ft | 422 kts | 91° |
| 2026-04-24 11:10 | 44.72880 | 17.70006 | 35132 ft | 422 kts | 91° |
| 2026-04-24 11:11 | 44.72385 | 17.78231 | 35122 ft | 422 kts | 91° |
| 2026-04-24 11:11 | 44.71880 | 17.86458 | 35126 ft | 422 kts | 91° |
| 2026-04-24 11:12 | 44.71373 | 17.94680 | 35126 ft | 422 kts | 91° |
| 2026-04-24 11:12 | 44.70857 | 18.02910 | 35124 ft | 422 kts | 92° |
| 2026-04-24 11:13 | 44.70337 | 18.11138 | 35118 ft | 422 kts | 91° |
| 2026-04-24 11:13 | 44.69813 | 18.19366 | 35123 ft | 422 kts | 92° |
| 2026-04-24 11:14 | 44.69282 | 18.27584 | 35117 ft | 422 kts | 92° |
| 2026-04-24 11:14 | 44.68744 | 18.35806 | 35120 ft | 422 kts | 92° |
| 2026-04-24 11:15 | 44.68302 | 18.42634 | 35119 ft | 422 kts | 91° |
| 2026-04-24 11:15 | 44.67755 | 18.50847 | 35121 ft | 422 kts | 92° |
| 2026-04-24 11:16 | 44.67198 | 18.59019 | 35121 ft | 422 kts | 92° |
| 2026-04-24 11:16 | 44.66632 | 18.67233 | 35122 ft | 423 kts | 92° |
| 2026-04-24 11:17 | 44.66066 | 18.75447 | 35118 ft | 422 kts | 92° |
| 2026-04-24 11:17 | 44.65501 | 18.83664 | 35119 ft | 423 kts | 92° |
| 2026-04-24 11:18 | 44.64927 | 18.91880 | 35116 ft | 422 kts | 92° |
| 2026-04-24 11:18 | 44.64338 | 19.00097 | 35117 ft | 423 kts | 92° |
| 2026-04-24 11:19 | 44.63746 | 19.08305 | 35110 ft | 423 kts | 92° |
| 2026-04-24 11:19 | 44.63155 | 19.16513 | 35110 ft | 423 kts | 92° |
| 2026-04-24 11:20 | 44.62554 | 19.24671 | 35105 ft | 423 kts | 92° |
| 2026-04-24 11:20 | 44.61947 | 19.32877 | 35109 ft | 423 kts | 92° |
| 2026-04-24 11:21 | 44.62083 | 19.41030 | 35100 ft | 417 kts | 81° |
| 2026-04-24 11:21 | 44.62711 | 19.48634 | 35103 ft | 417 kts | 81° |
| 2026-04-24 11:22 | 44.63352 | 19.56722 | 35094 ft | 417 kts | 81° |
| 2026-04-24 11:22 | 44.63984 | 19.64824 | 35097 ft | 417 kts | 81° |
| 2026-04-24 11:23 | 44.64607 | 19.72875 | 35089 ft | 417 kts | 81° |
| 2026-04-24 11:23 | 44.65230 | 19.80978 | 35089 ft | 418 kts | 81° |
| 2026-04-24 11:24 | 44.65854 | 19.89095 | 35088 ft | 418 kts | 81° |
| 2026-04-24 11:24 | 44.66471 | 19.97213 | 35092 ft | 418 kts | 81° |
| 2026-04-24 11:25 | 44.67083 | 20.05336 | 35088 ft | 418 kts | 81° |
| 2026-04-24 11:25 | 44.67688 | 20.13460 | 35097 ft | 418 kts | 81° |
| 2026-04-24 11:26 | 44.68290 | 20.21594 | 35095 ft | 418 kts | 81° |
| 2026-04-24 11:26 | 44.68869 | 20.29546 | 35096 ft | 418 kts | 81° |
| 2026-04-24 11:27 | 44.69362 | 20.36381 | 35093 ft | 418 kts | 81° |
| 2026-04-24 11:27 | 44.69947 | 20.44470 | 35093 ft | 419 kts | 81° |
| 2026-04-24 11:28 | 44.70523 | 20.52616 | 35085 ft | 419 kts | 81° |
| 2026-04-24 11:28 | 44.71094 | 20.60761 | 35082 ft | 419 kts | 81° |
| 2026-04-24 11:29 | 44.71660 | 20.68913 | 35070 ft | 419 kts | 81° |
| 2026-04-24 11:29 | 44.72223 | 20.77068 | 35064 ft | 419 kts | 81° |
| 2026-04-24 11:30 | 44.72775 | 20.85230 | 35057 ft | 419 kts | 81° |
| 2026-04-24 11:30 | 44.73319 | 20.93343 | 35060 ft | 419 kts | 81° |
| 2026-04-24 11:31 | 44.73869 | 21.01507 | 35055 ft | 420 kts | 81° |
| 2026-04-24 11:31 | 44.74407 | 21.09686 | 35057 ft | 420 kts | 81° |
| 2026-04-24 11:32 | 44.74936 | 21.17872 | 35050 ft | 420 kts | 81° |
| 2026-04-24 11:32 | 44.75431 | 21.25555 | 35053 ft | 420 kts | 81° |
| 2026-04-24 11:33 | 44.75954 | 21.33751 | 35048 ft | 421 kts | 81° |
| 2026-04-24 11:33 | 44.76465 | 21.41894 | 35045 ft | 421 kts | 81° |
| 2026-04-24 11:34 | 44.76974 | 21.50092 | 35042 ft | 421 kts | 81° |
| 2026-04-24 11:34 | 44.77343 | 21.58330 | 35041 ft | 423 kts | 84° |
| 2026-04-24 11:35 | 44.77403 | 21.66631 | 35042 ft | 425 kts | 85° |
| 2026-04-24 11:35 | 44.77398 | 21.74940 | 35042 ft | 425 kts | 85° |
| 2026-04-24 11:36 | 44.77443 | 21.83255 | 35038 ft | 425 kts | 85° |
| 2026-04-24 11:36 | 44.77521 | 21.91572 | 35036 ft | 425 kts | 84° |
| 2026-04-24 11:37 | 44.77593 | 21.99885 | 35027 ft | 425 kts | 85° |
| 2026-04-24 11:37 | 44.77650 | 22.08208 | 35030 ft | 425 kts | 85° |
| 2026-04-24 11:38 | 44.77695 | 22.16533 | 35020 ft | 425 kts | 85° |
| 2026-04-24 11:38 | 44.77731 | 22.24887 | 35000 ft | 430 kts | 84° |
| 2026-04-24 11:39 | 44.77767 | 22.33313 | 35007 ft | 430 kts | 84° |
| 2026-04-24 11:39 | 44.77804 | 22.41725 | 34999 ft | 429 kts | 84° |
| 2026-04-24 11:40 | 44.77831 | 22.50128 | 34997 ft | 429 kts | 84° |
| 2026-04-24 11:40 | 44.77854 | 22.58539 | 34993 ft | 430 kts | 84° |
| 2026-04-24 11:41 | 44.77865 | 22.66943 | 34985 ft | 430 kts | 84° |
| 2026-04-24 11:41 | 44.77864 | 22.75309 | 34980 ft | 430 kts | 84° |
| 2026-04-24 11:42 | 44.77862 | 22.83732 | 34978 ft | 430 kts | 84° |
| 2026-04-24 11:42 | 44.77855 | 22.92147 | 34976 ft | 430 kts | 84° |
| 2026-04-24 11:43 | 44.77844 | 23.00568 | 34968 ft | 430 kts | 84° |
| 2026-04-24 11:43 | 44.77826 | 23.08971 | 34967 ft | 429 kts | 84° |
| 2026-04-24 11:44 | 44.77815 | 23.13194 | 34537 ft | 433 kts | 84° |
| 2026-04-24 11:44 | 44.77804 | 23.17422 | 33938 ft | 432 kts | 84° |
| 2026-04-24 11:44 | 44.77787 | 23.21641 | 33257 ft | 431 kts | 84° |
| 2026-04-24 11:44 | 44.77769 | 23.25865 | 32584 ft | 431 kts | 84° |
| 2026-04-24 11:45 | 44.77751 | 23.30089 | 31933 ft | 433 kts | 84° |
| 2026-04-24 11:45 | 44.77736 | 23.34340 | 31292 ft | 435 kts | 84° |
| 2026-04-24 11:45 | 44.77719 | 23.38609 | 30668 ft | 438 kts | 84° |
| 2026-04-24 11:45 | 44.77698 | 23.42909 | 30058 ft | 440 kts | 85° |
| 2026-04-24 11:46 | 44.77673 | 23.47223 | 29355 ft | 443 kts | 85° |
| 2026-04-24 11:46 | 44.77644 | 23.51579 | 28660 ft | 446 kts | 85° |
| 2026-04-24 11:46 | 44.77610 | 23.55964 | 27986 ft | 449 kts | 85° |
| 2026-04-24 11:46 | 44.77574 | 23.60384 | 27323 ft | 453 kts | 85° |
| 2026-04-24 11:47 | 44.77538 | 23.64831 | 26671 ft | 456 kts | 85° |
| 2026-04-24 11:47 | 44.77503 | 23.69305 | 26039 ft | 459 kts | 85° |
| 2026-04-24 11:47 | 44.77468 | 23.73816 | 25421 ft | 462 kts | 86° |
| 2026-04-24 11:47 | 44.77431 | 23.78357 | 24817 ft | 465 kts | 86° |
| 2026-04-24 11:48 | 44.77392 | 23.82924 | 24223 ft | 469 kts | 86° |
| 2026-04-24 11:48 | 44.77349 | 23.87521 | 23641 ft | 470 kts | 86° |
| 2026-04-24 11:48 | 44.77302 | 23.92048 | 22998 ft | 468 kts | 86° |
| 2026-04-24 11:48 | 44.77251 | 23.96610 | 22324 ft | 465 kts | 86° |
| 2026-04-24 11:49 | 44.77199 | 24.01138 | 21669 ft | 461 kts | 86° |
| 2026-04-24 11:49 | 44.77148 | 24.05682 | 21352 ft | 457 kts | 86° |
| 2026-04-24 11:49 | 44.77099 | 24.10174 | 21299 ft | 458 kts | 86° |
| 2026-04-24 11:49 | 44.77054 | 24.14663 | 21250 ft | 459 kts | 86° |
| 2026-04-24 11:50 | 44.77007 | 24.19147 | 21202 ft | 458 kts | 86° |
| 2026-04-24 11:50 | 44.76956 | 24.23570 | 21153 ft | 458 kts | 86° |
| 2026-04-24 11:50 | 44.76898 | 24.28052 | 21103 ft | 458 kts | 86° |
| 2026-04-24 11:50 | 44.76836 | 24.32530 | 21052 ft | 458 kts | 86° |
| 2026-04-24 11:51 | 44.76772 | 24.37014 | 20950 ft | 458 kts | 87° |
| 2026-04-24 11:51 | 44.76707 | 24.41490 | 20833 ft | 457 kts | 87° |
| 2026-04-24 11:51 | 44.76641 | 24.45966 | 20710 ft | 457 kts | 87° |
| 2026-04-24 11:51 | 44.76572 | 24.50429 | 20579 ft | 456 kts | 87° |
| 2026-04-24 11:52 | 44.76502 | 24.54886 | 20454 ft | 456 kts | 87° |
| 2026-04-24 11:52 | 44.76430 | 24.59347 | 20331 ft | 455 kts | 87° |
| 2026-04-24 11:52 | 44.76358 | 24.63792 | 20209 ft | 455 kts | 87° |
| 2026-04-24 11:52 | 44.76288 | 24.68232 | 20088 ft | 454 kts | 87° |
| 2026-04-24 11:53 | 44.76217 | 24.72671 | 19961 ft | 454 kts | 87° |
| 2026-04-24 11:53 | 44.76141 | 24.77110 | 19838 ft | 453 kts | 87° |
| 2026-04-24 11:53 | 44.76062 | 24.81542 | 19717 ft | 453 kts | 87° |
| 2026-04-24 11:53 | 44.75980 | 24.85963 | 19595 ft | 452 kts | 87° |
| 2026-04-24 11:54 | 44.75898 | 24.90389 | 19474 ft | 452 kts | 87° |
| 2026-04-24 11:54 | 44.75816 | 24.94799 | 19352 ft | 451 kts | 87° |
| 2026-04-24 11:54 | 44.75733 | 24.99207 | 19232 ft | 450 kts | 87° |
| 2026-04-24 11:54 | 44.75647 | 25.03610 | 19113 ft | 450 kts | 88° |
| 2026-04-24 11:55 | 44.75559 | 25.07998 | 18993 ft | 449 kts | 88° |
| 2026-04-24 11:55 | 44.75340 | 25.12389 | 18872 ft | 452 kts | 95° |
| 2026-04-24 11:55 | 44.74584 | 25.16701 | 18751 ft | 457 kts | 106° |
| 2026-04-24 11:55 | 44.73254 | 25.20783 | 18639 ft | 462 kts | 117° |
| 2026-04-24 11:56 | 44.71521 | 25.24593 | 18512 ft | 463 kts | 120° |
| 2026-04-24 11:56 | 44.69765 | 25.28379 | 18411 ft | 462 kts | 120° |
| 2026-04-24 11:56 | 44.68013 | 25.32169 | 18292 ft | 462 kts | 120° |
| 2026-04-24 11:56 | 44.66266 | 25.35962 | 18165 ft | 461 kts | 120° |
| 2026-04-24 11:57 | 44.64523 | 25.39742 | 18048 ft | 460 kts | 120° |
| 2026-04-24 11:57 | 44.62782 | 25.43512 | 17887 ft | 460 kts | 120° |
| 2026-04-24 11:57 | 44.61043 | 25.47272 | 17770 ft | 459 kts | 120° |
| 2026-04-24 11:57 | 44.59303 | 25.51027 | 17636 ft | 458 kts | 120° |
| 2026-04-24 11:58 | 44.57563 | 25.54770 | 17498 ft | 458 kts | 120° |
| 2026-04-24 11:58 | 44.55830 | 25.58502 | 17373 ft | 457 kts | 120° |
| 2026-04-24 11:58 | 44.54688 | 25.60959 | 17276 ft | 448 kts | 120° |
| 2026-04-24 11:58 | 44.52465 | 25.65711 | 16988 ft | 428 kts | 120° |
| 2026-04-24 11:59 | 44.50882 | 25.69119 | 16490 ft | 415 kts | 118° |
| 2026-04-24 11:59 | 44.50016 | 25.71510 | 16150 ft | 401 kts | 108° |
| 2026-04-24 11:59 | 44.49169 | 25.76353 | 15489 ft | 375 kts | 90° |
| 2026-04-24 11:59 | 44.49135 | 25.78774 | 15123 ft | 363 kts | 82° |
| 2026-04-24 12:00 | 44.49480 | 25.83343 | 14318 ft | 351 kts | 79° |
| 2026-04-24 12:00 | 44.49745 | 25.86718 | 13724 ft | 345 kts | 79° |